createdAt,value
2018-11-13T00:00:27.067Z,87.79
2018-11-13T00:03:32.582Z,87.48
2018-11-13T00:06:38.151Z,87.49
2018-11-13T00:09:43.574Z,87.64
2018-11-13T00:12:49.252Z,87.68
2018-11-13T00:15:54.783Z,87.46
2018-11-13T00:19:00.354Z,87.93
2018-11-13T00:22:05.798Z,87.73
2018-11-13T00:25:13.922Z,88.12
2018-11-13T00:28:19.377Z,87.96
2018-11-13T00:31:24.810Z,87.48
2018-11-13T00:34:30.350Z,87.56
2018-11-13T00:37:36.065Z,87.41
2018-11-13T00:40:41.430Z,87.34
2018-11-13T00:43:46.942Z,87.30
2018-11-13T00:46:52.356Z,86.97
2018-11-13T00:49:57.778Z,87.61
2018-11-13T00:53:03.278Z,86.96
2018-11-13T00:56:08.650Z,86.70
2018-11-13T00:59:14.084Z,86.96
2018-11-13T01:02:19.999Z,87.05
2018-11-13T01:05:25.580Z,86.91
2018-11-13T01:08:31.542Z,87.38
2018-11-13T01:11:37.025Z,87.19
2018-11-13T01:14:42.722Z,87.69
2018-11-13T01:17:48.713Z,87.51
2018-11-13T01:20:54.114Z,87.79
2018-11-13T01:23:59.768Z,87.61
2018-11-13T01:27:05.518Z,87.64
2018-11-13T01:30:12.631Z,87.55
2018-11-13T01:33:18.157Z,87.31
2018-11-13T01:36:23.577Z,87.28
2018-11-13T01:39:29.035Z,87.74
2018-11-13T01:42:34.487Z,88.30
2018-11-13T01:45:39.978Z,88.32
2018-11-13T01:48:45.414Z,88.00
2018-11-13T01:51:50.809Z,87.19
2018-11-13T01:54:56.353Z,87.68
2018-11-13T01:58:01.809Z,87.79
2018-11-13T02:01:07.568Z,88.02
2018-11-13T02:04:13.083Z,87.92
2018-11-13T02:07:18.783Z,87.50
2018-11-13T02:10:24.302Z,87.68
2018-11-13T02:13:29.839Z,87.98
2018-11-13T02:16:35.816Z,88.09
2018-11-13T02:19:41.226Z,88.18
2018-11-13T02:22:46.673Z,88.02
2018-11-13T02:25:52.614Z,87.71
2018-11-13T02:28:58.003Z,87.81
2018-11-13T02:32:03.383Z,88.19
2018-11-13T02:35:09.778Z,88.12
2018-11-13T02:38:15.357Z,88.03
2018-11-13T02:41:20.721Z,87.35
2018-11-13T02:44:26.246Z,88.20
2018-11-13T02:47:31.916Z,88.06
2018-11-13T02:50:37.861Z,87.96
2018-11-13T02:53:43.414Z,88.15
2018-11-13T02:56:48.933Z,88.39
2018-11-13T02:59:54.314Z,88.48
2018-11-13T03:02:59.774Z,88.52
2018-11-13T03:06:05.406Z,88.31
2018-11-13T03:09:10.790Z,87.63
2018-11-13T03:12:16.137Z,87.83
2018-11-13T03:15:21.922Z,87.82
2018-11-13T03:18:27.336Z,88.10
2018-11-13T03:21:32.707Z,88.31
2018-11-13T03:24:38.146Z,88.13
2018-11-13T03:27:43.505Z,88.61
2018-11-13T03:30:48.852Z,88.10
2018-11-13T03:33:54.266Z,87.91
2018-11-13T03:36:59.613Z,87.91
2018-11-13T03:40:05.562Z,88.26
2018-11-13T03:43:11.146Z,88.37
2018-11-13T03:46:16.514Z,88.70
2018-11-13T03:49:21.937Z,89.06
2018-11-13T03:52:27.394Z,89.34
2018-11-13T03:55:32.906Z,89.10
2018-11-13T03:58:38.337Z,89.48
2018-11-13T04:01:43.740Z,89.59
2018-11-13T04:04:49.392Z,89.37
2018-11-13T04:07:55.428Z,89.91
2018-11-13T04:11:00.939Z,89.48
2018-11-13T04:14:06.438Z,89.45
2018-11-13T04:17:11.837Z,89.48
2018-11-13T04:20:18.846Z,89.34
2018-11-13T04:23:24.404Z,89.56
2018-11-13T04:26:29.894Z,89.25
2018-11-13T04:29:35.329Z,89.12
2018-11-13T04:32:41.652Z,88.96
2018-11-13T04:35:47.190Z,88.85
2018-11-13T04:38:52.754Z,89.06
2018-11-13T04:41:58.159Z,88.22
2018-11-13T04:45:03.671Z,88.01
2018-11-13T04:48:09.053Z,88.58
2018-11-13T04:51:14.429Z,88.37
2018-11-13T04:54:19.818Z,88.57
2018-11-13T04:57:25.226Z,88.34
2018-11-13T05:00:30.606Z,88.67
2018-11-13T05:03:36.074Z,89.17
2018-11-13T05:06:41.454Z,88.98
2018-11-13T05:15:21.666Z,88.60
2018-11-13T05:18:27.114Z,88.27
2018-11-13T05:21:32.800Z,88.04
2018-11-13T05:24:38.330Z,88.47
2018-11-13T05:27:44.146Z,87.87
2018-11-13T05:30:49.567Z,88.37
2018-11-13T05:33:55.125Z,87.97
2018-11-13T05:37:00.690Z,88.15
2018-11-13T05:40:09.947Z,87.87
2018-11-13T05:43:15.414Z,87.49
2018-11-13T05:46:20.858Z,87.26
2018-11-13T05:49:26.454Z,87.37
2018-11-13T05:52:31.925Z,87.01
2018-11-13T05:55:37.416Z,86.81
2018-11-13T05:58:42.868Z,86.01
2018-11-13T06:01:48.318Z,85.41
2018-11-13T06:04:53.894Z,85.59
2018-11-13T06:07:59.354Z,85.34
2018-11-13T06:11:04.865Z,85.25
2018-11-13T06:14:10.303Z,85.52
2018-11-13T06:17:16.249Z,85.26
2018-11-13T06:20:21.610Z,85.57
2018-11-13T06:23:27.065Z,85.56
2018-11-13T06:26:32.442Z,85.59
2018-11-13T06:29:39.125Z,85.46
2018-11-13T06:32:45.400Z,85.39
2018-11-13T06:35:50.885Z,84.97
2018-11-13T06:38:56.386Z,84.60
2018-11-13T06:42:02.185Z,84.31
2018-11-13T06:45:10.609Z,84.21
2018-11-13T06:48:16.081Z,83.72
2018-11-13T06:51:21.530Z,83.52
2018-11-13T06:54:46.653Z,83.58
2018-11-13T06:57:52.100Z,83.41
2018-11-13T07:00:57.544Z,83.23
2018-11-13T07:04:03.062Z,83.41
2018-11-13T07:07:08.457Z,83.71
2018-11-13T07:10:16.078Z,82.81
2018-11-13T07:13:22.470Z,82.92
2018-11-13T07:16:27.981Z,82.47
2018-11-13T07:19:33.443Z,82.06
2018-11-13T07:22:38.978Z,81.14
2018-11-13T07:25:44.450Z,81.88
2018-11-13T07:28:49.869Z,81.15
2018-11-13T07:31:55.289Z,80.13
2018-11-13T07:35:00.804Z,81.28
2018-11-13T07:38:06.257Z,81.34
2018-11-13T07:41:11.765Z,82.33
2018-11-13T07:44:17.406Z,82.80
2018-11-13T07:47:22.935Z,83.67
2018-11-13T07:50:28.502Z,83.42
2018-11-13T07:53:34.218Z,83.60
2018-11-13T07:56:39.635Z,82.34
2018-11-13T07:59:45.038Z,82.27
2018-11-13T08:02:51.931Z,80.51
2018-11-13T08:05:57.423Z,79.96
2018-11-13T08:09:03.829Z,79.03
2018-11-13T08:12:09.617Z,79.55
2018-11-13T08:15:16.431Z,78.34
2018-11-13T08:18:21.873Z,78.70
2018-11-13T08:21:27.801Z,78.62
2018-11-13T08:24:33.246Z,77.46
2018-11-13T08:27:39.697Z,77.38
2018-11-13T08:30:45.339Z,77.27
2018-11-13T08:33:51.026Z,77.18
2018-11-13T08:36:56.440Z,76.67
2018-11-13T08:40:01.871Z,75.01
2018-11-13T08:43:07.675Z,74.92
2018-11-13T08:46:13.031Z,75.41
2018-11-13T08:49:18.428Z,75.45
2018-11-13T08:52:23.866Z,75.77
2018-11-13T08:55:29.392Z,74.29
2018-11-13T08:58:34.888Z,73.64
2018-11-13T09:01:40.495Z,73.48
2018-11-13T09:04:46.063Z,72.52
2018-11-13T09:07:51.473Z,72.42
2018-11-13T09:10:57.711Z,72.31
2018-11-13T09:14:03.418Z,71.74
2018-11-13T09:17:08.947Z,71.42
2018-11-13T09:20:15.878Z,71.33
2018-11-13T09:23:21.513Z,71.05
2018-11-13T09:26:27.397Z,71.39
2018-11-13T09:29:33.357Z,71.10
2018-11-13T09:32:39.209Z,71.35
2018-11-13T09:35:44.902Z,70.31
2018-11-13T09:38:50.456Z,71.09
2018-11-13T09:41:55.886Z,71.42
2018-11-13T09:45:01.529Z,72.25
2018-11-13T09:48:07.582Z,72.77
2018-11-13T09:51:12.965Z,73.44
2018-11-13T09:54:18.841Z,73.76
2018-11-13T09:57:24.374Z,74.05
2018-11-13T10:00:30.088Z,74.82
2018-11-13T10:03:36.373Z,75.04
2018-11-13T10:06:41.562Z,74.38
2018-11-13T10:09:47.376Z,74.35
2018-11-13T10:12:52.778Z,74.59
2018-11-13T10:15:58.215Z,75.30
2018-11-13T10:19:03.698Z,75.15
2018-11-13T10:22:09.140Z,75.76
2018-11-13T10:25:14.725Z,75.60
2018-11-13T10:28:20.166Z,75.90
2018-11-13T10:31:25.802Z,76.60
2018-11-13T10:34:31.422Z,75.58
2018-11-13T10:37:37.170Z,76.38
2018-11-13T10:40:42.826Z,77.01
2018-11-13T10:43:48.301Z,76.21
2018-11-13T10:46:53.745Z,76.10
2018-11-13T10:49:59.162Z,76.30
2018-11-13T10:53:04.679Z,76.88
2018-11-13T10:56:10.402Z,77.63
2018-11-13T10:59:15.850Z,77.46
2018-11-13T11:02:26.585Z,77.47
2018-11-13T11:05:32.197Z,77.28
2018-11-13T11:08:37.590Z,76.46
2018-11-13T11:11:43.246Z,76.44
2018-11-13T11:14:48.686Z,76.81
2018-11-13T11:17:54.131Z,76.79
2018-11-13T11:20:59.582Z,76.58
2018-11-13T11:24:05.488Z,76.94
2018-11-13T11:27:11.092Z,76.41
2018-11-13T11:30:17.271Z,76.77
2018-11-13T11:33:22.810Z,76.63
2018-11-13T11:36:28.182Z,76.40
2018-11-13T11:39:33.562Z,76.34
2018-11-13T11:42:39.235Z,76.52
2018-11-13T11:45:44.745Z,75.01
2018-11-13T11:48:50.318Z,74.95
2018-11-13T11:51:55.730Z,74.34
2018-11-13T11:55:01.138Z,75.45
2018-11-13T11:58:07.479Z,75.65
2018-11-13T12:01:12.850Z,74.74
2018-11-13T12:04:18.311Z,75.15
2018-11-13T12:07:23.706Z,74.90
2018-11-13T12:10:29.091Z,75.18
2018-11-13T12:13:34.593Z,74.91
2018-11-13T12:16:39.962Z,75.14
2018-11-13T12:19:45.374Z,74.92
2018-11-13T12:22:51.116Z,75.05
2018-11-13T12:25:56.701Z,75.20
2018-11-13T12:29:02.309Z,75.18
2018-11-13T12:32:08.034Z,74.00
2018-11-13T12:35:14.965Z,73.05
2018-11-13T12:38:20.380Z,73.70
2018-11-13T12:41:25.775Z,72.97
2018-11-13T12:44:31.238Z,74.02
2018-11-13T12:47:36.598Z,74.18
2018-11-13T12:50:47.475Z,73.66
2018-11-13T12:53:52.856Z,73.67
2018-11-13T12:56:58.215Z,73.81
2018-11-13T13:00:03.657Z,73.72
2018-11-13T13:03:09.077Z,74.82
2018-11-13T13:06:14.486Z,75.64
2018-11-13T13:09:19.902Z,76.29
2018-11-13T13:12:25.560Z,76.99
2018-11-13T13:15:31.014Z,78.82
2018-11-13T13:18:36.412Z,78.98
2018-11-13T13:21:41.837Z,78.69
2018-11-13T13:24:47.477Z,78.41
2018-11-13T13:27:52.852Z,79.30
2018-11-13T13:30:58.268Z,79.95
2018-11-13T13:34:03.683Z,79.73
2018-11-13T13:37:09.078Z,79.06
2018-11-13T13:40:14.462Z,79.38
2018-11-13T13:43:20.306Z,80.43
2018-11-13T13:46:25.764Z,79.44
2018-11-13T13:49:31.341Z,78.60
2018-11-13T13:52:36.735Z,78.57
2018-11-13T13:55:42.561Z,78.60
2018-11-13T13:58:47.937Z,76.58
2018-11-13T14:01:53.321Z,75.65
2018-11-13T14:04:58.775Z,73.42
2018-11-13T14:08:04.422Z,74.15
2018-11-13T14:11:09.883Z,74.65
2018-11-13T14:14:15.334Z,75.14
2018-11-13T14:17:20.702Z,75.40
2018-11-13T14:20:26.401Z,77.00
2018-11-13T14:23:31.906Z,76.79
2018-11-13T14:26:37.710Z,77.39
2018-11-13T14:29:43.247Z,77.23
2018-11-13T14:32:49.311Z,77.85
2018-11-13T14:35:54.676Z,77.59
2018-11-13T14:39:00.065Z,77.87
2018-11-13T14:42:05.891Z,78.30
2018-11-13T14:45:11.758Z,78.06
2018-11-13T14:48:17.174Z,78.70
2018-11-13T14:51:22.846Z,78.99
2018-11-13T14:54:28.355Z,79.01
2018-11-13T14:57:34.543Z,79.04
2018-11-13T15:00:40.241Z,79.15
2018-11-13T15:03:45.736Z,78.97
2018-11-13T15:06:51.158Z,79.39
2018-11-13T15:09:56.545Z,79.93
2018-11-13T15:13:02.173Z,80.68
2018-11-13T15:16:07.573Z,80.16
2018-11-13T15:19:12.951Z,80.62
2018-11-13T15:22:18.342Z,80.44
2018-11-13T15:25:24.382Z,79.85
2018-11-13T15:28:29.770Z,80.32
2018-11-13T15:31:35.132Z,80.54
2018-11-13T15:34:40.745Z,80.02
2018-11-13T15:37:46.105Z,80.48
2018-11-13T15:40:51.489Z,79.95
2018-11-13T15:43:56.951Z,80.21
2018-11-13T15:47:02.306Z,80.33
2018-11-13T15:50:11.662Z,80.50
2018-11-13T15:53:17.068Z,81.06
2018-11-13T15:56:22.557Z,80.60
2018-11-13T15:59:27.951Z,80.77
2018-11-13T16:02:33.294Z,80.02
2018-11-13T16:05:42.722Z,79.99
2018-11-13T16:08:48.086Z,80.23
2018-11-13T16:11:53.473Z,80.06
2018-11-13T16:14:59.005Z,79.61
2018-11-13T16:18:06.904Z,79.53
2018-11-13T16:21:12.395Z,79.62
2018-11-13T16:24:18.005Z,79.92
2018-11-13T16:27:23.389Z,79.60
2018-11-13T16:30:30.532Z,79.44
2018-11-13T16:33:36.023Z,79.62
2018-11-13T16:36:41.458Z,79.85
2018-11-13T16:39:47.014Z,79.31
2018-11-13T16:42:52.391Z,79.66
2018-11-13T16:45:57.815Z,80.26
2018-11-13T16:49:03.202Z,80.27
2018-11-13T16:52:08.591Z,79.17
2018-11-13T16:55:19.781Z,79.89
2018-11-13T16:58:25.221Z,79.00
2018-11-13T18:15:45.617Z,77.96
2018-11-13T18:18:50.985Z,77.66
2018-11-13T18:21:56.484Z,77.78
2018-11-13T18:25:01.983Z,77.99
2018-11-13T18:28:07.830Z,77.37
2018-11-13T18:31:13.722Z,77.71
2018-11-13T18:34:19.163Z,77.90
2018-11-13T18:37:24.532Z,77.64
2018-11-13T18:40:30.174Z,77.06
2018-11-13T18:43:35.610Z,76.65
2018-11-13T18:46:40.978Z,76.81
2018-11-13T18:49:46.335Z,76.54
2018-11-13T18:52:51.704Z,76.94
2018-11-13T18:55:57.081Z,76.58
2018-11-13T18:59:02.529Z,77.06
2018-11-13T19:02:08.071Z,76.48
2018-11-13T19:05:14.821Z,76.54
2018-11-13T19:08:20.330Z,76.38
2018-11-13T19:11:25.780Z,76.71
2018-11-13T19:14:31.398Z,77.05
2018-11-13T19:17:36.846Z,77.39
2018-11-13T19:20:42.482Z,77.26
2018-11-13T19:23:48.019Z,77.16
2018-11-13T19:26:53.558Z,77.58
2018-11-13T19:29:58.959Z,77.23
2018-11-13T19:33:04.626Z,77.82
2018-11-13T19:36:10.317Z,77.85
2018-11-13T19:39:15.886Z,77.82
2018-11-13T19:42:21.310Z,77.70
2018-11-13T19:45:26.850Z,77.52
2018-11-13T19:48:32.259Z,77.44
2018-11-13T19:51:37.764Z,77.29
2018-11-13T19:54:45.650Z,77.61
2018-11-13T19:57:53.594Z,77.54
2018-11-13T20:01:01.297Z,78.02
2018-11-13T20:04:07.438Z,78.35
2018-11-13T20:07:13.413Z,77.95
2018-11-13T20:10:22.842Z,77.68
2018-11-13T20:13:28.551Z,78.52
2018-11-13T20:16:34.514Z,78.30
2018-11-13T20:19:40.189Z,79.31
2018-11-13T20:22:46.101Z,79.30
2018-11-13T20:25:51.556Z,79.29
2018-11-13T20:28:56.963Z,79.49
2018-11-13T20:32:02.462Z,79.66
2018-11-13T20:35:08.977Z,79.99
2018-11-13T20:38:14.421Z,80.35
2018-11-13T20:41:20.211Z,79.88
2018-11-13T20:44:25.818Z,80.13
2018-11-13T20:47:31.410Z,79.33
2018-11-13T20:50:36.883Z,79.46
2018-11-13T20:53:42.422Z,79.54
2018-11-13T20:56:47.833Z,79.08
2018-11-13T20:59:53.358Z,79.27
2018-11-13T21:02:59.108Z,79.90
2018-11-13T21:06:04.503Z,79.82
2018-11-13T21:09:09.881Z,79.62
2018-11-13T21:12:15.274Z,79.59
2018-11-13T21:15:21.892Z,79.57
2018-11-13T21:18:27.367Z,79.65
2018-11-13T21:21:32.809Z,79.24
2018-11-13T21:24:39.048Z,79.81
2018-11-13T21:27:45.023Z,80.05
2018-11-13T21:30:50.483Z,80.45
2018-11-13T21:33:56.006Z,80.47
2018-11-13T21:37:01.578Z,80.86
2018-11-13T21:40:08.055Z,81.00
2018-11-13T21:43:13.715Z,81.43
2018-11-13T21:46:19.353Z,81.65
2018-11-13T21:49:25.174Z,81.87
2018-11-13T21:52:30.574Z,81.90
2018-11-13T21:55:36.084Z,80.84
2018-11-13T21:58:41.659Z,81.39
2018-11-13T22:01:47.114Z,81.28
2018-11-13T22:04:52.767Z,81.39
2018-11-13T22:07:58.384Z,81.10
2018-11-13T22:11:04.050Z,81.37
2018-11-13T22:14:09.582Z,81.08
2018-11-13T22:17:15.025Z,81.09
2018-11-13T22:20:21.481Z,81.51
2018-11-13T22:23:26.951Z,80.87
2018-11-13T22:26:32.514Z,81.54
2018-11-13T22:29:37.927Z,82.01
2018-11-13T22:32:43.541Z,82.41
2018-11-13T22:35:48.948Z,82.04
2018-11-13T22:38:54.464Z,82.61
2018-11-13T22:42:00.180Z,82.36
2018-11-13T22:45:06.313Z,83.13
2018-11-13T22:48:11.770Z,83.26
2018-11-13T22:51:17.259Z,83.00
2018-11-13T22:54:22.774Z,83.55
2018-11-13T22:57:28.183Z,83.49
2018-11-13T23:00:41.474Z,83.94
2018-11-13T23:03:47.230Z,84.23
2018-11-13T23:06:52.626Z,83.71
2018-11-13T23:09:58.138Z,84.41
2018-11-13T23:13:04.407Z,84.75
2018-11-13T23:16:09.481Z,84.51
2018-11-13T23:19:14.853Z,84.76
2018-11-13T23:22:20.316Z,84.58
2018-11-13T23:25:25.845Z,84.58
2018-11-13T23:28:31.293Z,84.69
2018-11-13T23:31:36.754Z,84.89
2018-11-13T23:34:42.186Z,84.64
2018-11-13T23:37:49.716Z,84.59
2018-11-13T23:40:55.260Z,85.40
2018-11-13T23:44:00.857Z,84.92
2018-11-13T23:47:06.629Z,85.27
2018-11-13T23:50:12.374Z,85.34
2018-11-13T23:53:17.989Z,85.39
2018-11-13T23:56:23.378Z,85.49
2018-11-13T23:59:28.994Z,85.21
